sensor_id;sensor_type;location;lat;lon;timestamp;P1;durP1;ratioP1;P2;durP2;ratioP2
6642;SDS011;3357;48.050;7.800;2024-02-28T00:02:22;24.50;;;14.80;;
6642;SDS011;3357;48.050;7.800;2024-02-28T00:04:47;29.80;;;15.47;;
6642;SDS011;3357;48.050;7.800;2024-02-28T00:07:12;26.73;;;14.80;;
6642;SDS011;3357;48.050;7.800;2024-02-28T00:09:37;26.70;;;14.87;;
6642;SDS011;3357;48.050;7.800;2024-02-28T00:12:03;28.23;;;15.10;;
6642;SDS011;3357;48.050;7.800;2024-02-28T00:14:28;23.33;;;14.50;;
6642;SDS011;3357;48.050;7.800;2024-02-28T00:16:54;23.37;;;14.03;;
6642;SDS011;3357;48.050;7.800;2024-02-28T00:19:19;28.40;;;14.40;;
6642;SDS011;3357;48.050;7.800;2024-02-28T00:21:45;23.73;;;13.63;;
6642;SDS011;3357;48.050;7.800;2024-02-28T00:24:10;27.50;;;14.50;;
6642;SDS011;3357;48.050;7.800;2024-02-28T00:26:36;25.97;;;14.53;;
6642;SDS011;3357;48.050;7.800;2024-02-28T00:29:02;25.30;;;14.63;;
6642;SDS011;3357;48.050;7.800;2024-02-28T00:31:27;22.50;;;14.70;;
6642;SDS011;3357;48.050;7.800;2024-02-28T00:33:53;21.50;;;13.60;;
6642;SDS011;3357;48.050;7.800;2024-02-28T00:36:18;25.40;;;15.20;;
6642;SDS011;3357;48.050;7.800;2024-02-28T00:38:43;24.40;;;15.20;;
6642;SDS011;3357;48.050;7.800;2024-02-28T00:41:08;24.20;;;15.07;;
6642;SDS011;3357;48.050;7.800;2024-02-28T00:43:34;30.20;;;13.97;;
6642;SDS011;3357;48.050;7.800;2024-02-28T00:45:59;26.10;;;15.80;;
6642;SDS011;3357;48.050;7.800;2024-02-28T00:48:25;25.13;;;13.60;;
6642;SDS011;3357;48.050;7.800;2024-02-28T00:50:50;25.40;;;13.67;;
6642;SDS011;3357;48.050;7.800;2024-02-28T00:53:17;24.00;;;13.93;;
6642;SDS011;3357;48.050;7.800;2024-02-28T00:55:42;32.73;;;15.73;;
6642;SDS011;3357;48.050;7.800;2024-02-28T00:58:07;25.07;;;14.73;;
6642;SDS011;3357;48.050;7.800;2024-02-28T01:00:33;29.67;;;15.53;;
6642;SDS011;3357;48.050;7.800;2024-02-28T01:02:58;25.27;;;14.00;;
6642;SDS011;3357;48.050;7.800;2024-02-28T01:05:23;25.70;;;14.90;;
6642;SDS011;3357;48.050;7.800;2024-02-28T01:07:49;24.37;;;14.77;;
6642;SDS011;3357;48.050;7.800;2024-02-28T01:10:14;25.90;;;14.60;;
6642;SDS011;3357;48.050;7.800;2024-02-28T01:12:39;31.40;;;16.50;;
6642;SDS011;3357;48.050;7.800;2024-02-28T01:15:04;25.43;;;15.00;;
6642;SDS011;3357;48.050;7.800;2024-02-28T01:17:30;29.07;;;15.30;;
6642;SDS011;3357;48.050;7.800;2024-02-28T01:19:55;31.77;;;15.83;;
6642;SDS011;3357;48.050;7.800;2024-02-28T01:22:21;28.90;;;16.17;;
6642;SDS011;3357;48.050;7.800;2024-02-28T01:24:46;26.43;;;15.20;;
6642;SDS011;3357;48.050;7.800;2024-02-28T01:27:11;28.60;;;16.00;;
6642;SDS011;3357;48.050;7.800;2024-02-28T01:29:36;27.60;;;14.57;;
6642;SDS011;3357;48.050;7.800;2024-02-28T01:32:02;26.87;;;15.50;;
6642;SDS011;3357;48.050;7.800;2024-02-28T01:34:27;26.40;;;15.30;;
6642;SDS011;3357;48.050;7.800;2024-02-28T01:36:53;28.83;;;15.13;;
6642;SDS011;3357;48.050;7.800;2024-02-28T01:39:18;24.50;;;14.40;;
6642;SDS011;3357;48.050;7.800;2024-02-28T01:42:04;26.53;;;14.30;;
6642;SDS011;3357;48.050;7.800;2024-02-28T01:44:29;28.33;;;15.20;;
6642;SDS011;3357;48.050;7.800;2024-02-28T01:46:54;29.73;;;16.10;;
6642;SDS011;3357;48.050;7.800;2024-02-28T01:49:21;36.87;;;15.97;;
6642;SDS011;3357;48.050;7.800;2024-02-28T01:51:47;31.60;;;18.20;;
6642;SDS011;3357;48.050;7.800;2024-02-28T01:54:13;28.20;;;17.13;;
6642;SDS011;3357;48.050;7.800;2024-02-28T01:56:39;26.17;;;15.40;;
6642;SDS011;3357;48.050;7.800;2024-02-28T01:59:04;29.70;;;16.13;;
6642;SDS011;3357;48.050;7.800;2024-02-28T02:01:30;26.83;;;15.90;;
6642;SDS011;3357;48.050;7.800;2024-02-28T02:03:55;26.00;;;14.57;;
6642;SDS011;3357;48.050;7.800;2024-02-28T02:06:21;30.07;;;15.50;;
6642;SDS011;3357;48.050;7.800;2024-02-28T02:08:47;30.63;;;16.17;;
6642;SDS011;3357;48.050;7.800;2024-02-28T02:11:14;27.50;;;15.83;;
6642;SDS011;3357;48.050;7.800;2024-02-28T02:13:50;27.07;;;16.00;;
6642;SDS011;3357;48.050;7.800;2024-02-28T02:16:16;27.23;;;15.43;;
6642;SDS011;3357;48.050;7.800;2024-02-28T02:18:41;27.07;;;15.60;;
6642;SDS011;3357;48.050;7.800;2024-02-28T02:21:06;30.47;;;16.37;;
6642;SDS011;3357;48.050;7.800;2024-02-28T02:23:32;32.10;;;16.47;;
6642;SDS011;3357;48.050;7.800;2024-02-28T02:25:58;30.87;;;15.90;;
6642;SDS011;3357;48.050;7.800;2024-02-28T02:28:23;31.90;;;16.97;;
6642;SDS011;3357;48.050;7.800;2024-02-28T02:30:48;25.20;;;14.20;;
6642;SDS011;3357;48.050;7.800;2024-02-28T02:33:14;27.43;;;16.23;;
6642;SDS011;3357;48.050;7.800;2024-02-28T02:35:39;30.20;;;16.20;;
6642;SDS011;3357;48.050;7.800;2024-02-28T02:38:04;28.40;;;16.23;;
6642;SDS011;3357;48.050;7.800;2024-02-28T02:40:30;29.07;;;16.20;;
6642;SDS011;3357;48.050;7.800;2024-02-28T02:42:55;31.90;;;15.67;;
6642;SDS011;3357;48.050;7.800;2024-02-28T02:45:20;25.43;;;14.60;;
6642;SDS011;3357;48.050;7.800;2024-02-28T02:47:45;24.93;;;14.70;;
6642;SDS011;3357;48.050;7.800;2024-02-28T02:50:11;25.70;;;15.10;;
6642;SDS011;3357;48.050;7.800;2024-02-28T02:52:36;32.90;;;16.03;;
6642;SDS011;3357;48.050;7.800;2024-02-28T02:55:01;28.90;;;14.97;;
6642;SDS011;3357;48.050;7.800;2024-02-28T02:57:27;26.87;;;15.40;;
6642;SDS011;3357;48.050;7.800;2024-02-28T02:59:52;25.17;;;15.50;;
6642;SDS011;3357;48.050;7.800;2024-02-28T03:02:18;31.73;;;16.23;;
6642;SDS011;3357;48.050;7.800;2024-02-28T03:04:43;29.10;;;16.03;;
6642;SDS011;3357;48.050;7.800;2024-02-28T03:07:08;29.93;;;16.13;;
6642;SDS011;3357;48.050;7.800;2024-02-28T03:09:33;27.90;;;16.10;;
6642;SDS011;3357;48.050;7.800;2024-02-28T03:11:59;29.43;;;16.10;;
6642;SDS011;3357;48.050;7.800;2024-02-28T03:14:24;29.87;;;16.40;;
6642;SDS011;3357;48.050;7.800;2024-02-28T03:16:52;32.17;;;18.23;;
6642;SDS011;3357;48.050;7.800;2024-02-28T03:19:17;31.20;;;16.17;;
6642;SDS011;3357;48.050;7.800;2024-02-28T03:21:43;31.63;;;15.73;;
6642;SDS011;3357;48.050;7.800;2024-02-28T03:24:08;28.30;;;15.90;;
6642;SDS011;3357;48.050;7.800;2024-02-28T03:26:33;29.20;;;16.20;;
6642;SDS011;3357;48.050;7.800;2024-02-28T03:28:59;33.03;;;17.33;;
6642;SDS011;3357;48.050;7.800;2024-02-28T03:31:24;32.17;;;15.87;;
6642;SDS011;3357;48.050;7.800;2024-02-28T03:33:50;32.13;;;16.40;;
6642;SDS011;3357;48.050;7.800;2024-02-28T03:36:15;32.50;;;15.90;;
6642;SDS011;3357;48.050;7.800;2024-02-28T03:38:41;31.77;;;15.77;;
6642;SDS011;3357;48.050;7.800;2024-02-28T03:41:06;30.17;;;16.37;;
6642;SDS011;3357;48.050;7.800;2024-02-28T03:43:31;33.63;;;16.70;;
6642;SDS011;3357;48.050;7.800;2024-02-28T03:45:56;34.40;;;16.83;;
6642;SDS011;3357;48.050;7.800;2024-02-28T03:48:22;28.50;;;16.20;;
6642;SDS011;3357;48.050;7.800;2024-02-28T03:50:47;37.20;;;16.33;;
6642;SDS011;3357;48.050;7.800;2024-02-28T03:53:12;28.40;;;15.80;;
6642;SDS011;3357;48.050;7.800;2024-02-28T03:55:37;32.53;;;16.57;;
6642;SDS011;3357;48.050;7.800;2024-02-28T03:58:03;33.67;;;17.03;;
6642;SDS011;3357;48.050;7.800;2024-02-28T04:00:28;30.67;;;15.90;;
6642;SDS011;3357;48.050;7.800;2024-02-28T04:02:53;26.10;;;15.40;;
6642;SDS011;3357;48.050;7.800;2024-02-28T04:05:19;28.03;;;16.27;;
6642;SDS011;3357;48.050;7.800;2024-02-28T04:07:44;33.73;;;17.23;;
6642;SDS011;3357;48.050;7.800;2024-02-28T04:10:09;32.60;;;17.07;;
6642;SDS011;3357;48.050;7.800;2024-02-28T04:12:36;28.13;;;16.60;;
6642;SDS011;3357;48.050;7.800;2024-02-28T04:15:01;32.90;;;15.90;;
6642;SDS011;3357;48.050;7.800;2024-02-28T04:17:27;34.33;;;16.60;;
6642;SDS011;3357;48.050;7.800;2024-02-28T04:19:52;31.60;;;16.40;;
6642;SDS011;3357;48.050;7.800;2024-02-28T04:22:18;32.83;;;16.57;;
6642;SDS011;3357;48.050;7.800;2024-02-28T04:24:43;32.13;;;17.77;;
6642;SDS011;3357;48.050;7.800;2024-02-28T04:27:08;30.60;;;16.73;;
6642;SDS011;3357;48.050;7.800;2024-02-28T04:29:36;30.77;;;15.97;;
6642;SDS011;3357;48.050;7.800;2024-02-28T04:32:01;29.27;;;16.40;;
6642;SDS011;3357;48.050;7.800;2024-02-28T04:34:26;34.77;;;16.57;;
6642;SDS011;3357;48.050;7.800;2024-02-28T04:36:51;31.57;;;16.10;;
6642;SDS011;3357;48.050;7.800;2024-02-28T04:39:17;35.53;;;16.40;;
6642;SDS011;3357;48.050;7.800;2024-02-28T04:41:42;31.43;;;17.13;;
6642;SDS011;3357;48.050;7.800;2024-02-28T04:44:07;31.40;;;17.50;;
6642;SDS011;3357;48.050;7.800;2024-02-28T04:46:33;31.53;;;15.37;;
6642;SDS011;3357;48.050;7.800;2024-02-28T04:48:59;33.03;;;16.73;;
6642;SDS011;3357;48.050;7.800;2024-02-28T04:51:24;27.90;;;15.00;;
6642;SDS011;3357;48.050;7.800;2024-02-28T04:53:50;34.17;;;16.60;;
6642;SDS011;3357;48.050;7.800;2024-02-28T04:56:15;30.67;;;15.30;;
6642;SDS011;3357;48.050;7.800;2024-02-28T04:58:40;27.13;;;16.10;;
6642;SDS011;3357;48.050;7.800;2024-02-28T05:01:05;29.10;;;15.60;;
6642;SDS011;3357;48.050;7.800;2024-02-28T05:03:31;26.40;;;15.80;;
6642;SDS011;3357;48.050;7.800;2024-02-28T05:05:56;29.37;;;15.30;;
6642;SDS011;3357;48.050;7.800;2024-02-28T05:08:21;28.03;;;14.47;;
6642;SDS011;3357;48.050;7.800;2024-02-28T05:10:47;29.97;;;14.93;;
6642;SDS011;3357;48.050;7.800;2024-02-28T05:13:12;25.43;;;14.40;;
6642;SDS011;3357;48.050;7.800;2024-02-28T05:15:37;31.33;;;16.57;;
6642;SDS011;3357;48.050;7.800;2024-02-28T05:18:03;31.20;;;16.27;;
6642;SDS011;3357;48.050;7.800;2024-02-28T05:20:28;31.00;;;16.83;;
6642;SDS011;3357;48.050;7.800;2024-02-28T05:22:54;27.30;;;16.63;;
6642;SDS011;3357;48.050;7.800;2024-02-28T05:25:19;28.93;;;15.97;;
6642;SDS011;3357;48.050;7.800;2024-02-28T05:27:44;27.53;;;16.03;;
6642;SDS011;3357;48.050;7.800;2024-02-28T05:30:09;29.47;;;15.80;;
6642;SDS011;3357;48.050;7.800;2024-02-28T05:32:35;35.63;;;17.13;;
6642;SDS011;3357;48.050;7.800;2024-02-28T05:35:00;31.67;;;16.60;;
6642;SDS011;3357;48.050;7.800;2024-02-28T05:37:26;29.20;;;17.20;;
6642;SDS011;3357;48.050;7.800;2024-02-28T05:39:51;33.47;;;17.93;;
6642;SDS011;3357;48.050;7.800;2024-02-28T05:42:16;35.13;;;18.13;;
6642;SDS011;3357;48.050;7.800;2024-02-28T05:44:47;40.50;;;18.20;;
6642;SDS011;3357;48.050;7.800;2024-02-28T05:47:15;36.33;;;17.63;;
6642;SDS011;3357;48.050;7.800;2024-02-28T05:49:40;36.33;;;18.17;;
6642;SDS011;3357;48.050;7.800;2024-02-28T05:52:06;34.13;;;17.80;;
6642;SDS011;3357;48.050;7.800;2024-02-28T05:54:31;37.60;;;18.43;;
6642;SDS011;3357;48.050;7.800;2024-02-28T05:56:56;36.47;;;17.80;;
6642;SDS011;3357;48.050;7.800;2024-02-28T05:59:22;30.90;;;17.33;;
6642;SDS011;3357;48.050;7.800;2024-02-28T06:01:47;41.07;;;18.93;;
6642;SDS011;3357;48.050;7.800;2024-02-28T06:04:12;32.53;;;17.57;;
6642;SDS011;3357;48.050;7.800;2024-02-28T06:06:38;40.10;;;19.20;;
6642;SDS011;3357;48.050;7.800;2024-02-28T06:09:03;33.10;;;18.60;;
6642;SDS011;3357;48.050;7.800;2024-02-28T06:11:28;41.30;;;18.57;;
6642;SDS011;3357;48.050;7.800;2024-02-28T06:13:53;33.10;;;17.80;;
6642;SDS011;3357;48.050;7.800;2024-02-28T06:16:19;32.50;;;17.93;;
6642;SDS011;3357;48.050;7.800;2024-02-28T06:18:44;36.43;;;19.73;;
6642;SDS011;3357;48.050;7.800;2024-02-28T06:21:09;41.80;;;19.67;;
6642;SDS011;3357;48.050;7.800;2024-02-28T06:23:35;42.77;;;19.57;;
6642;SDS011;3357;48.050;7.800;2024-02-28T06:26:00;38.00;;;19.50;;
6642;SDS011;3357;48.050;7.800;2024-02-28T06:28:25;35.30;;;17.90;;
6642;SDS011;3357;48.050;7.800;2024-02-28T06:30:51;41.53;;;18.77;;
6642;SDS011;3357;48.050;7.800;2024-02-28T06:33:17;37.13;;;18.83;;
6642;SDS011;3357;48.050;7.800;2024-02-28T06:35:42;39.33;;;19.47;;
6642;SDS011;3357;48.050;7.800;2024-02-28T06:38:07;40.90;;;20.77;;
6642;SDS011;3357;48.050;7.800;2024-02-28T06:40:33;41.60;;;20.43;;
6642;SDS011;3357;48.050;7.800;2024-02-28T06:42:58;37.20;;;19.30;;
6642;SDS011;3357;48.050;7.800;2024-02-28T06:45:24;39.03;;;18.50;;
6642;SDS011;3357;48.050;7.800;2024-02-28T06:47:49;41.27;;;18.80;;
6642;SDS011;3357;48.050;7.800;2024-02-28T06:50:15;33.90;;;18.17;;
6642;SDS011;3357;48.050;7.800;2024-02-28T06:52:41;41.27;;;17.83;;
6642;SDS011;3357;48.050;7.800;2024-02-28T06:55:07;35.50;;;19.47;;
6642;SDS011;3357;48.050;7.800;2024-02-28T06:57:39;42.67;;;20.63;;
6642;SDS011;3357;48.050;7.800;2024-02-28T07:00:09;41.33;;;19.17;;
6642;SDS011;3357;48.050;7.800;2024-02-28T07:02:36;35.50;;;18.23;;
6642;SDS011;3357;48.050;7.800;2024-02-28T07:05:02;40.07;;;19.07;;
6642;SDS011;3357;48.050;7.800;2024-02-28T07:07:29;39.77;;;19.50;;
6642;SDS011;3357;48.050;7.800;2024-02-28T07:09:55;37.30;;;18.43;;
6642;SDS011;3357;48.050;7.800;2024-02-28T07:12:20;35.73;;;19.93;;
6642;SDS011;3357;48.050;7.800;2024-02-28T07:14:46;38.90;;;18.97;;
6642;SDS011;3357;48.050;7.800;2024-02-28T07:17:11;37.23;;;19.77;;
6642;SDS011;3357;48.050;7.800;2024-02-28T07:19:36;36.53;;;18.60;;
6642;SDS011;3357;48.050;7.800;2024-02-28T07:22:01;36.67;;;19.47;;
6642;SDS011;3357;48.050;7.800;2024-02-28T07:24:27;38.77;;;18.70;;
6642;SDS011;3357;48.050;7.800;2024-02-28T07:26:53;37.10;;;19.13;;
6642;SDS011;3357;48.050;7.800;2024-02-28T07:29:18;36.87;;;18.73;;
6642;SDS011;3357;48.050;7.800;2024-02-28T07:31:43;43.50;;;19.70;;
6642;SDS011;3357;48.050;7.800;2024-02-28T07:34:10;33.00;;;17.20;;
6642;SDS011;3357;48.050;7.800;2024-02-28T07:36:36;40.30;;;19.83;;
6642;SDS011;3357;48.050;7.800;2024-02-28T07:39:02;34.87;;;17.50;;
6642;SDS011;3357;48.050;7.800;2024-02-28T07:41:28;38.77;;;18.30;;
6642;SDS011;3357;48.050;7.800;2024-02-28T07:43:53;38.70;;;18.67;;
6642;SDS011;3357;48.050;7.800;2024-02-28T07:46:18;32.77;;;17.43;;
6642;SDS011;3357;48.050;7.800;2024-02-28T07:48:43;36.40;;;18.50;;
6642;SDS011;3357;48.050;7.800;2024-02-28T07:51:09;43.20;;;20.60;;
6642;SDS011;3357;48.050;7.800;2024-02-28T07:53:34;38.73;;;18.13;;
6642;SDS011;3357;48.050;7.800;2024-02-28T07:56:00;39.67;;;19.90;;
6642;SDS011;3357;48.050;7.800;2024-02-28T07:58:25;35.00;;;19.33;;
6642;SDS011;3357;48.050;7.800;2024-02-28T08:00:51;38.80;;;19.77;;
6642;SDS011;3357;48.050;7.800;2024-02-28T08:03:19;39.50;;;19.60;;
6642;SDS011;3357;48.050;7.800;2024-02-28T08:05:44;38.50;;;19.63;;
6642;SDS011;3357;48.050;7.800;2024-02-28T08:08:09;39.80;;;20.03;;
6642;SDS011;3357;48.050;7.800;2024-02-28T08:10:35;48.67;;;21.60;;
6642;SDS011;3357;48.050;7.800;2024-02-28T08:13:02;47.77;;;20.27;;
6642;SDS011;3357;48.050;7.800;2024-02-28T08:15:28;39.60;;;19.40;;
6642;SDS011;3357;48.050;7.800;2024-02-28T08:17:53;48.70;;;22.43;;
6642;SDS011;3357;48.050;7.800;2024-02-28T08:20:18;38.77;;;19.67;;
6642;SDS011;3357;48.050;7.800;2024-02-28T08:22:44;37.13;;;20.00;;
6642;SDS011;3357;48.050;7.800;2024-02-28T08:25:09;41.70;;;20.77;;
6642;SDS011;3357;48.050;7.800;2024-02-28T08:27:36;40.80;;;20.93;;
6642;SDS011;3357;48.050;7.800;2024-02-28T08:30:02;41.40;;;20.33;;
6642;SDS011;3357;48.050;7.800;2024-02-28T08:32:28;46.90;;;20.43;;
6642;SDS011;3357;48.050;7.800;2024-02-28T08:34:53;39.37;;;19.27;;
6642;SDS011;3357;48.050;7.800;2024-02-28T08:37:19;45.77;;;22.30;;
6642;SDS011;3357;48.050;7.800;2024-02-28T08:39:44;45.13;;;21.27;;
6642;SDS011;3357;48.050;7.800;2024-02-28T08:42:10;40.20;;;21.00;;
6642;SDS011;3357;48.050;7.800;2024-02-28T08:44:35;38.70;;;20.27;;
6642;SDS011;3357;48.050;7.800;2024-02-28T08:47:00;40.80;;;20.03;;
6642;SDS011;3357;48.050;7.800;2024-02-28T08:49:25;40.30;;;19.80;;
6642;SDS011;3357;48.050;7.800;2024-02-28T08:51:51;40.57;;;19.90;;
6642;SDS011;3357;48.050;7.800;2024-02-28T08:54:16;40.20;;;20.23;;
6642;SDS011;3357;48.050;7.800;2024-02-28T08:56:42;37.07;;;18.97;;
6642;SDS011;3357;48.050;7.800;2024-02-28T08:59:07;40.83;;;20.20;;
6642;SDS011;3357;48.050;7.800;2024-02-28T09:01:32;42.27;;;21.30;;
6642;SDS011;3357;48.050;7.800;2024-02-28T09:03:59;41.77;;;20.23;;
6642;SDS011;3357;48.050;7.800;2024-02-28T09:06:25;45.40;;;21.43;;
6642;SDS011;3357;48.050;7.800;2024-02-28T09:08:50;46.27;;;21.00;;
6642;SDS011;3357;48.050;7.800;2024-02-28T09:11:15;41.57;;;20.57;;
6642;SDS011;3357;48.050;7.800;2024-02-28T09:13:40;40.80;;;21.60;;
6642;SDS011;3357;48.050;7.800;2024-02-28T09:16:06;38.43;;;20.00;;
6642;SDS011;3357;48.050;7.800;2024-02-28T09:18:31;41.37;;;21.20;;
6642;SDS011;3357;48.050;7.800;2024-02-28T09:20:56;42.30;;;20.20;;
6642;SDS011;3357;48.050;7.800;2024-02-28T09:23:21;42.30;;;21.33;;
6642;SDS011;3357;48.050;7.800;2024-02-28T09:25:47;40.50;;;20.97;;
6642;SDS011;3357;48.050;7.800;2024-02-28T09:28:12;41.60;;;21.20;;
6642;SDS011;3357;48.050;7.800;2024-02-28T09:30:39;45.97;;;20.27;;
6642;SDS011;3357;48.050;7.800;2024-02-28T09:33:04;38.57;;;20.80;;
6642;SDS011;3357;48.050;7.800;2024-02-28T09:35:30;41.10;;;20.73;;
6642;SDS011;3357;48.050;7.800;2024-02-28T09:37:55;44.47;;;22.43;;
6642;SDS011;3357;48.050;7.800;2024-02-28T09:40:21;44.03;;;21.40;;
6642;SDS011;3357;48.050;7.800;2024-02-28T09:42:48;42.93;;;21.67;;
6642;SDS011;3357;48.050;7.800;2024-02-28T09:45:18;42.00;;;20.30;;
6642;SDS011;3357;48.050;7.800;2024-02-28T09:47:45;39.43;;;20.00;;
6642;SDS011;3357;48.050;7.800;2024-02-28T09:50:10;40.93;;;19.57;;
6642;SDS011;3357;48.050;7.800;2024-02-28T09:52:36;48.70;;;20.87;;
6642;SDS011;3357;48.050;7.800;2024-02-28T09:55:01;35.30;;;19.10;;
6642;SDS011;3357;48.050;7.800;2024-02-28T09:57:27;36.50;;;19.57;;
6642;SDS011;3357;48.050;7.800;2024-02-28T09:59:54;35.27;;;18.73;;
6642;SDS011;3357;48.050;7.800;2024-02-28T10:02:21;38.10;;;20.50;;
6642;SDS011;3357;48.050;7.800;2024-02-28T10:04:48;36.50;;;18.53;;
6642;SDS011;3357;48.050;7.800;2024-02-28T10:07:14;40.33;;;20.10;;
6642;SDS011;3357;48.050;7.800;2024-02-28T10:09:40;36.67;;;19.27;;
6642;SDS011;3357;48.050;7.800;2024-02-28T10:12:05;38.40;;;18.20;;
6642;SDS011;3357;48.050;7.800;2024-02-28T10:14:31;38.07;;;20.57;;
6642;SDS011;3357;48.050;7.800;2024-02-28T10:16:56;35.53;;;19.87;;
6642;SDS011;3357;48.050;7.800;2024-02-28T10:19:21;41.60;;;20.60;;
6642;SDS011;3357;48.050;7.800;2024-02-28T10:21:47;42.47;;;19.90;;
6642;SDS011;3357;48.050;7.800;2024-02-28T10:24:12;36.10;;;19.33;;
6642;SDS011;3357;48.050;7.800;2024-02-28T10:26:44;40.50;;;20.57;;
6642;SDS011;3357;48.050;7.800;2024-02-28T10:29:09;38.40;;;19.53;;
6642;SDS011;3357;48.050;7.800;2024-02-28T10:31:35;36.93;;;19.20;;
6642;SDS011;3357;48.050;7.800;2024-02-28T10:34:00;33.77;;;18.40;;
6642;SDS011;3357;48.050;7.800;2024-02-28T10:36:27;41.60;;;20.43;;
6642;SDS011;3357;48.050;7.800;2024-02-28T10:38:55;32.10;;;17.70;;
6642;SDS011;3357;48.050;7.800;2024-02-28T10:41:21;29.47;;;17.03;;
6642;SDS011;3357;48.050;7.800;2024-02-28T10:43:46;30.47;;;17.67;;
6642;SDS011;3357;48.050;7.800;2024-02-28T10:46:13;30.07;;;16.50;;
6642;SDS011;3357;48.050;7.800;2024-02-28T10:48:39;29.67;;;16.50;;
6642;SDS011;3357;48.050;7.800;2024-02-28T10:51:04;29.37;;;17.50;;
6642;SDS011;3357;48.050;7.800;2024-02-28T10:53:36;31.10;;;17.20;;
6642;SDS011;3357;48.050;7.800;2024-02-28T10:56:04;31.83;;;18.37;;
6642;SDS011;3357;48.050;7.800;2024-02-28T10:58:34;30.17;;;16.73;;
6642;SDS011;3357;48.050;7.800;2024-02-28T11:01:03;26.93;;;15.63;;
6642;SDS011;3357;48.050;7.800;2024-02-28T11:03:29;32.73;;;16.77;;
6642;SDS011;3357;48.050;7.800;2024-02-28T11:05:55;25.70;;;15.37;;
6642;SDS011;3357;48.050;7.800;2024-02-28T11:08:21;25.50;;;14.70;;
6642;SDS011;3357;48.050;7.800;2024-02-28T11:10:54;27.33;;;15.70;;
6642;SDS011;3357;48.050;7.800;2024-02-28T11:13:26;25.33;;;15.10;;
6642;SDS011;3357;48.050;7.800;2024-02-28T11:15:52;24.37;;;14.67;;
6642;SDS011;3357;48.050;7.800;2024-02-28T11:18:18;24.67;;;14.87;;
6642;SDS011;3357;48.050;7.800;2024-02-28T11:20:44;25.53;;;14.40;;
6642;SDS011;3357;48.050;7.800;2024-02-28T11:23:11;30.63;;;16.07;;
6642;SDS011;3357;48.050;7.800;2024-02-28T11:25:37;27.10;;;15.60;;
6642;SDS011;3357;48.050;7.800;2024-02-28T11:28:02;26.67;;;16.30;;
6642;SDS011;3357;48.050;7.800;2024-02-28T11:30:27;24.57;;;14.47;;
6642;SDS011;3357;48.050;7.800;2024-02-28T11:32:53;25.63;;;14.60;;
6642;SDS011;3357;48.050;7.800;2024-02-28T11:35:19;22.93;;;14.77;;
6642;SDS011;3357;48.050;7.800;2024-02-28T11:37:45;26.50;;;15.00;;
6642;SDS011;3357;48.050;7.800;2024-02-28T11:40:12;28.40;;;15.50;;
6642;SDS011;3357;48.050;7.800;2024-02-28T11:42:37;27.53;;;15.27;;
6642;SDS011;3357;48.050;7.800;2024-02-28T11:45:03;23.07;;;13.80;;
6642;SDS011;3357;48.050;7.800;2024-02-28T11:47:30;23.80;;;13.67;;
6642;SDS011;3357;48.050;7.800;2024-02-28T11:50:02;23.90;;;14.40;;
6642;SDS011;3357;48.050;7.800;2024-02-28T11:52:30;27.17;;;14.67;;
6642;SDS011;3357;48.050;7.800;2024-02-28T11:54:55;23.87;;;14.10;;
6642;SDS011;3357;48.050;7.800;2024-02-28T11:57:20;26.27;;;13.53;;
6642;SDS011;3357;48.050;7.800;2024-02-28T11:59:46;21.60;;;13.07;;
6642;SDS011;3357;48.050;7.800;2024-02-28T12:02:12;23.63;;;13.90;;
6642;SDS011;3357;48.050;7.800;2024-02-28T12:04:39;23.17;;;13.07;;
6642;SDS011;3357;48.050;7.800;2024-02-28T12:07:05;22.67;;;13.30;;
6642;SDS011;3357;48.050;7.800;2024-02-28T12:09:30;25.30;;;12.60;;
6642;SDS011;3357;48.050;7.800;2024-02-28T12:11:56;20.27;;;12.30;;
6642;SDS011;3357;48.050;7.800;2024-02-28T12:14:25;25.40;;;13.03;;
6642;SDS011;3357;48.050;7.800;2024-02-28T12:16:50;22.30;;;12.73;;
6642;SDS011;3357;48.050;7.800;2024-02-28T12:19:16;23.13;;;14.37;;
6642;SDS011;3357;48.050;7.800;2024-02-28T12:21:45;27.00;;;14.03;;
6642;SDS011;3357;48.050;7.800;2024-02-28T12:24:10;19.97;;;13.07;;
6642;SDS011;3357;48.050;7.800;2024-02-28T12:26:36;23.57;;;13.47;;
6642;SDS011;3357;48.050;7.800;2024-02-28T12:29:05;20.47;;;11.80;;
6642;SDS011;3357;48.050;7.800;2024-02-28T12:31:30;21.10;;;12.93;;
6642;SDS011;3357;48.050;7.800;2024-02-28T12:33:55;20.00;;;12.10;;
6642;SDS011;3357;48.050;7.800;2024-02-28T12:36:21;21.27;;;12.10;;
6642;SDS011;3357;48.050;7.800;2024-02-28T12:38:46;18.87;;;11.43;;
6642;SDS011;3357;48.050;7.800;2024-02-28T12:41:12;20.17;;;12.50;;
6642;SDS011;3357;48.050;7.800;2024-02-28T12:43:38;19.80;;;11.90;;
6642;SDS011;3357;48.050;7.800;2024-02-28T12:46:04;20.70;;;12.27;;
6642;SDS011;3357;48.050;7.800;2024-02-28T12:48:29;23.50;;;12.73;;
6642;SDS011;3357;48.050;7.800;2024-02-28T12:50:56;18.63;;;11.17;;
6642;SDS011;3357;48.050;7.800;2024-02-28T12:53:21;20.67;;;12.03;;
6642;SDS011;3357;48.050;7.800;2024-02-28T12:55:46;21.07;;;12.70;;
6642;SDS011;3357;48.050;7.800;2024-02-28T12:58:12;18.57;;;12.20;;
6642;SDS011;3357;48.050;7.800;2024-02-28T13:00:37;23.63;;;13.20;;
6642;SDS011;3357;48.050;7.800;2024-02-28T13:03:02;25.07;;;13.70;;
6642;SDS011;3357;48.050;7.800;2024-02-28T13:05:28;22.20;;;12.70;;
6642;SDS011;3357;48.050;7.800;2024-02-28T13:07:54;21.30;;;12.60;;
6642;SDS011;3357;48.050;7.800;2024-02-28T13:10:19;24.97;;;13.00;;
6642;SDS011;3357;48.050;7.800;2024-02-28T13:12:46;19.50;;;13.20;;
6642;SDS011;3357;48.050;7.800;2024-02-28T13:15:12;22.57;;;13.90;;
6642;SDS011;3357;48.050;7.800;2024-02-28T13:17:37;23.17;;;13.60;;
6642;SDS011;3357;48.050;7.800;2024-02-28T13:20:03;22.00;;;12.47;;
6642;SDS011;3357;48.050;7.800;2024-02-28T13:22:28;19.87;;;12.47;;
6642;SDS011;3357;48.050;7.800;2024-02-28T13:24:53;19.93;;;11.87;;
6642;SDS011;3357;48.050;7.800;2024-02-28T13:27:19;20.67;;;12.37;;
6642;SDS011;3357;48.050;7.800;2024-02-28T13:29:44;22.43;;;13.50;;
6642;SDS011;3357;48.050;7.800;2024-02-28T13:32:10;20.40;;;12.93;;
6642;SDS011;3357;48.050;7.800;2024-02-28T13:34:35;20.93;;;12.63;;
6642;SDS011;3357;48.050;7.800;2024-02-28T13:37:00;18.27;;;11.80;;
6642;SDS011;3357;48.050;7.800;2024-02-28T13:39:25;20.40;;;12.23;;
6642;SDS011;3357;48.050;7.800;2024-02-28T13:41:52;18.57;;;12.33;;
6642;SDS011;3357;48.050;7.800;2024-02-28T13:44:17;18.40;;;11.63;;
6642;SDS011;3357;48.050;7.800;2024-02-28T13:46:44;17.77;;;11.57;;
6642;SDS011;3357;48.050;7.800;2024-02-28T13:49:09;20.60;;;12.10;;
6642;SDS011;3357;48.050;7.800;2024-02-28T13:51:35;19.63;;;11.57;;
6642;SDS011;3357;48.050;7.800;2024-02-28T13:54:01;17.60;;;11.20;;
6642;SDS011;3357;48.050;7.800;2024-02-28T13:56:27;18.87;;;10.93;;
6642;SDS011;3357;48.050;7.800;2024-02-28T13:58:52;21.23;;;11.60;;
6642;SDS011;3357;48.050;7.800;2024-02-28T14:01:17;16.10;;;10.83;;
6642;SDS011;3357;48.050;7.800;2024-02-28T14:03:44;18.23;;;11.50;;
6642;SDS011;3357;48.050;7.800;2024-02-28T14:06:09;16.90;;;10.87;;
6642;SDS011;3357;48.050;7.800;2024-02-28T14:08:34;20.23;;;11.57;;
6642;SDS011;3357;48.050;7.800;2024-02-28T14:11:03;24.53;;;12.97;;
6642;SDS011;3357;48.050;7.800;2024-02-28T14:13:28;18.13;;;11.30;;
6642;SDS011;3357;48.050;7.800;2024-02-28T14:15:53;17.77;;;11.37;;
6642;SDS011;3357;48.050;7.800;2024-02-28T14:18:19;18.87;;;10.93;;
6642;SDS011;3357;48.050;7.800;2024-02-28T14:20:44;15.30;;;10.50;;
6642;SDS011;3357;48.050;7.800;2024-02-28T14:23:10;19.53;;;11.20;;
6642;SDS011;3357;48.050;7.800;2024-02-28T14:25:35;20.90;;;11.23;;
6642;SDS011;3357;48.050;7.800;2024-02-28T14:28:00;17.67;;;10.93;;
6642;SDS011;3357;48.050;7.800;2024-02-28T14:30:25;16.87;;;10.80;;
6642;SDS011;3357;48.050;7.800;2024-02-28T14:32:51;26.33;;;11.40;;
6642;SDS011;3357;48.050;7.800;2024-02-28T14:35:17;15.60;;;10.07;;
6642;SDS011;3357;48.050;7.800;2024-02-28T14:37:42;18.87;;;10.80;;
6642;SDS011;3357;48.050;7.800;2024-02-28T14:40:09;15.43;;;10.70;;